createdAt,value
2022-11-29T00:00:47.063Z,60.75
2022-11-29T00:03:15.206Z,60.93
2022-11-29T00:05:43.198Z,60.76
2022-11-29T00:08:11.070Z,60.70
2022-11-29T00:10:39.035Z,60.93
2022-11-29T00:13:06.952Z,60.71
2022-11-29T00:15:38.130Z,61.01
2022-11-29T00:18:06.059Z,60.72
2022-11-29T00:20:34.375Z,60.80
2022-11-29T00:23:02.523Z,60.97
2022-11-29T00:25:30.391Z,61.01
2022-11-29T00:27:58.417Z,60.77
2022-11-29T00:30:26.725Z,60.74
2022-11-29T00:32:56.058Z,60.55
2022-11-29T00:35:23.947Z,60.48
2022-11-29T00:37:51.798Z,60.51
2022-11-29T00:40:19.764Z,60.54
2022-11-29T00:42:47.650Z,60.60
2022-11-29T00:45:15.621Z,60.71
2022-11-29T00:47:43.486Z,60.70
2022-11-29T00:50:13.296Z,60.71
2022-11-29T00:52:41.200Z,60.91
2022-11-29T00:55:09.940Z,61.05
2022-11-29T00:57:37.827Z,61.14
2022-11-29T01:00:07.092Z,61.27
2022-11-29T01:02:35.019Z,61.39
2022-11-29T01:05:03.007Z,61.30
2022-11-29T01:07:32.277Z,61.25
2022-11-29T01:10:00.173Z,61.48
2022-11-29T01:12:28.083Z,61.21
2022-11-29T01:14:55.975Z,61.18
2022-11-29T01:17:23.894Z,61.04
2022-11-29T01:19:51.772Z,61.32
2022-11-29T01:22:19.703Z,60.93
2022-11-29T01:24:49.252Z,60.70
2022-11-29T01:27:17.151Z,60.78
2022-11-29T01:29:45.038Z,60.80
2022-11-29T01:32:13.532Z,60.51
2022-11-29T01:34:41.821Z,60.77
2022-11-29T01:37:09.783Z,60.86
2022-11-29T01:39:37.672Z,61.00
2022-11-29T01:42:07.087Z,60.97
2022-11-29T01:45:00.912Z,61.25
2022-11-29T01:47:28.803Z,61.07
2022-11-29T01:49:56.647Z,61.15
2022-11-29T01:52:26.436Z,61.09
2022-11-29T01:54:56.862Z,61.04
2022-11-29T01:57:26.311Z,61.16
2022-11-29T01:59:55.766Z,61.09
2022-11-29T02:02:25.982Z,61.18
2022-11-29T02:04:53.942Z,61.27
2022-11-29T02:07:21.860Z,61.11
2022-11-29T02:09:49.746Z,61.31
2022-11-29T02:12:22.523Z,61.13
2022-11-29T02:15:06.685Z,61.25
2022-11-29T02:17:37.579Z,61.23
2022-11-29T02:20:41.939Z,60.95
2022-11-29T02:23:20.611Z,60.98
2022-11-29T02:26:00.711Z,61.02
2022-11-29T02:28:57.964Z,60.88
2022-11-29T02:32:04.304Z,61.29
2022-11-29T02:34:52.799Z,61.11
2022-11-29T02:37:41.527Z,61.03
2022-11-29T02:40:27.933Z,60.94
2022-11-29T02:43:16.287Z,61.14
2022-11-29T02:46:08.163Z,60.91
2022-11-29T02:48:50.312Z,60.97
2022-11-29T02:51:23.558Z,60.75
2022-11-29T02:53:53.836Z,61.01
2022-11-29T02:56:25.306Z,61.21
2022-11-29T02:58:56.970Z,61.16
2022-11-29T03:01:27.139Z,61.03
2022-11-29T03:03:58.355Z,61.12
2022-11-29T03:06:33.009Z,61.17
2022-11-29T03:09:02.224Z,60.90
2022-11-29T03:11:32.953Z,61.09
2022-11-29T03:17:01.232Z,61.16
2022-11-29T03:19:36.862Z,60.95
2022-11-29T03:22:12.064Z,61.03
2022-11-29T03:24:43.955Z,60.93
2022-11-29T03:27:13.744Z,61.07
2022-11-29T03:29:44.295Z,60.91
2022-11-29T03:32:13.794Z,60.80
2022-11-29T03:34:54.242Z,60.91
2022-11-29T03:37:28.249Z,60.92
2022-11-29T03:39:58.679Z,60.60
2022-11-29T03:42:27.788Z,60.67
2022-11-29T03:44:59.803Z,60.42
2022-11-29T03:47:30.034Z,60.67
2022-11-29T03:50:00.279Z,60.50
2022-11-29T03:52:32.460Z,60.67
2022-11-29T03:55:12.651Z,60.62
2022-11-29T03:57:45.336Z,60.52
2022-11-29T04:00:13.813Z,60.50
2022-11-29T04:03:03.002Z,60.21
2022-11-29T04:05:48.716Z,60.09
2022-11-29T04:08:46.491Z,60.24
2022-11-29T04:11:30.540Z,60.25
2022-11-29T04:14:17.854Z,60.54
2022-11-29T04:17:30.432Z,61.02
2022-11-29T04:20:37.810Z,61.19
2022-11-29T04:23:37.809Z,61.34
2022-11-29T04:26:44.895Z,61.53
2022-11-29T04:29:30.771Z,61.53
2022-11-29T04:32:11.803Z,61.52
2022-11-29T04:35:03.856Z,61.54
2022-11-29T04:37:45.823Z,61.58
2022-11-29T04:40:32.826Z,61.59
2022-11-29T04:43:43.326Z,61.73
2022-11-29T04:46:19.303Z,61.57
2022-11-29T04:49:10.772Z,61.46
2022-11-29T04:51:49.219Z,61.54
2022-11-29T04:54:19.788Z,61.38
2022-11-29T04:56:49.003Z,61.41
2022-11-29T04:59:19.780Z,61.51
2022-11-29T05:01:56.537Z,61.64
2022-11-29T05:04:27.702Z,61.47
2022-11-29T05:07:02.671Z,61.41
2022-11-29T05:09:37.131Z,61.38
2022-11-29T05:12:07.699Z,61.62
2022-11-29T05:14:41.545Z,61.45
2022-11-29T05:17:30.858Z,61.33
2022-11-29T05:20:19.488Z,61.33
2022-11-29T05:22:53.909Z,61.11
2022-11-29T05:25:39.124Z,60.80
2022-11-29T05:28:10.670Z,61.00
2022-11-29T05:30:51.534Z,60.98
2022-11-29T05:33:24.047Z,60.85
2022-11-29T05:35:53.234Z,60.96
2022-11-29T05:38:41.794Z,61.03
2022-11-29T05:41:16.504Z,60.92
2022-11-29T05:43:48.856Z,60.80
2022-11-29T05:46:20.192Z,60.99
2022-11-29T05:48:54.154Z,61.04
2022-11-29T05:51:23.243Z,61.09
2022-11-29T05:53:56.272Z,60.95
2022-11-29T05:56:26.618Z,61.09
2022-11-29T05:58:57.216Z,61.00
2022-11-29T06:01:26.275Z,61.17
2022-11-29T06:03:58.507Z,61.17
2022-11-29T06:06:31.633Z,61.10
2022-11-29T06:09:01.554Z,60.99
2022-11-29T06:11:31.900Z,60.73
2022-11-29T06:14:05.584Z,60.98
2022-11-29T06:16:49.834Z,60.88
2022-11-29T06:19:46.321Z,60.68
2022-11-29T06:22:26.143Z,60.71
2022-11-29T06:25:01.589Z,60.58
2022-11-29T06:27:42.505Z,60.50
2022-11-29T06:30:12.216Z,60.67
2022-11-29T06:32:44.112Z,60.82
2022-11-29T06:35:28.562Z,60.47
2022-11-29T06:37:56.812Z,60.75
2022-11-29T06:40:25.379Z,60.87
2022-11-29T06:42:53.249Z,60.76
2022-11-29T06:45:22.558Z,60.88
2022-11-29T06:47:51.630Z,61.00
2022-11-29T06:50:33.335Z,60.56
2022-11-29T06:53:04.308Z,60.52
2022-11-29T06:55:34.974Z,60.79
2022-11-29T06:58:05.943Z,60.68
2022-11-29T07:00:38.594Z,60.59
2022-11-29T07:03:29.858Z,60.13
2022-11-29T07:05:59.194Z,60.42
2022-11-29T07:08:27.627Z,60.35
2022-11-29T07:10:56.224Z,60.42
2022-11-29T07:13:24.607Z,60.63
2022-11-29T07:15:57.205Z,60.61
2022-11-29T07:18:29.267Z,60.57
2022-11-29T07:21:03.163Z,60.71
2022-11-29T07:23:35.274Z,60.77
2022-11-29T07:26:10.332Z,60.74
2022-11-29T07:28:43.305Z,60.60
2022-11-29T07:31:13.464Z,60.51
2022-11-29T07:33:45.655Z,60.37
2022-11-29T07:36:16.872Z,60.30
2022-11-29T07:38:54.351Z,60.45
2022-11-29T07:41:25.422Z,60.28
2022-11-29T07:43:55.840Z,60.23
2022-11-29T07:46:24.109Z,60.26
2022-11-29T07:48:52.263Z,60.38
2022-11-29T07:51:21.651Z,60.07
2022-11-29T07:53:49.635Z,60.13
2022-11-29T07:56:17.540Z,60.10
2022-11-29T07:58:46.068Z,60.06
2022-11-29T08:01:14.147Z,60.05
2022-11-29T08:03:42.872Z,60.11
2022-11-29T08:06:10.874Z,60.19
2022-11-29T08:08:43.893Z,60.06
2022-11-29T08:11:12.657Z,59.99
2022-11-29T08:13:40.747Z,59.98
2022-11-29T08:16:09.054Z,60.24
2022-11-29T08:18:37.444Z,60.28
2022-11-29T08:21:07.134Z,60.43
2022-11-29T08:23:35.068Z,60.47
2022-11-29T08:26:04.522Z,60.40
2022-11-29T08:28:32.442Z,60.79
2022-11-29T08:31:03.819Z,60.81
2022-11-29T08:33:31.757Z,61.02
2022-11-29T08:36:05.674Z,61.05
2022-11-29T08:38:33.772Z,61.28
2022-11-29T08:41:06.215Z,61.38
2022-11-29T08:43:37.379Z,61.53
2022-11-29T08:46:05.661Z,61.54
2022-11-29T08:48:34.064Z,61.50
2022-11-29T08:51:01.975Z,61.41
2022-11-29T08:53:46.153Z,61.43
2022-11-29T08:57:04.467Z,61.42
2022-11-29T08:59:05.530Z,61.34
2022-11-29T09:01:33.806Z,61.55
2022-11-29T09:04:02.945Z,61.62
2022-11-29T09:06:34.948Z,61.74
2022-11-29T09:09:02.840Z,61.67
2022-11-29T09:11:32.336Z,61.58
2022-11-29T09:14:01.025Z,61.69
2022-11-29T09:16:30.207Z,61.41
2022-11-29T09:18:58.130Z,61.40
2022-11-29T09:21:26.943Z,61.47
2022-11-29T09:23:58.820Z,61.46
2022-11-29T09:26:29.200Z,61.52
2022-11-29T09:29:01.132Z,61.89
2022-11-29T09:31:29.833Z,61.88
2022-11-29T09:33:58.266Z,62.11
2022-11-29T09:36:30.156Z,62.01
2022-11-29T09:38:58.123Z,61.98
2022-11-29T09:41:54.353Z,61.84
2022-11-29T09:44:28.274Z,61.85
2022-11-29T09:47:02.156Z,62.10
2022-11-29T09:49:44.604Z,61.70
2022-11-29T09:52:15.111Z,61.98
2022-11-29T09:54:45.682Z,61.65
2022-11-29T09:57:14.146Z,61.68
2022-11-29T09:59:44.394Z,61.96
2022-11-29T10:02:21.287Z,61.79
2022-11-29T10:04:51.085Z,61.88
2022-11-29T10:07:21.802Z,61.86
2022-11-29T10:09:53.053Z,61.65
2022-11-29T10:12:23.164Z,61.27
2022-11-29T10:14:56.617Z,61.17
2022-11-29T10:17:29.167Z,61.03
2022-11-29T10:19:58.844Z,61.16
2022-11-29T10:22:32.400Z,61.22
2022-11-29T10:25:00.956Z,61.46
2022-11-29T10:27:30.097Z,61.13
2022-11-29T10:30:00.998Z,61.08
2022-11-29T10:32:33.800Z,61.24
2022-11-29T10:35:01.776Z,60.91
2022-11-29T10:37:32.665Z,60.81
2022-11-29T10:40:04.279Z,60.97
2022-11-29T10:42:52.797Z,61.17
2022-11-29T10:45:30.222Z,60.90
2022-11-29T10:47:59.917Z,61.03
2022-11-29T10:50:28.988Z,60.94
2022-11-29T10:53:00.062Z,61.08
2022-11-29T10:55:28.344Z,60.70
2022-11-29T10:58:16.243Z,60.72
2022-11-29T11:00:57.564Z,60.97
2022-11-29T11:03:31.985Z,60.76
2022-11-29T11:06:01.346Z,60.56
2022-11-29T11:08:29.782Z,60.57
2022-11-29T11:11:01.662Z,60.62
2022-11-29T11:13:31.635Z,60.68
2022-11-29T11:16:09.856Z,60.06
2022-11-29T11:18:37.866Z,60.06
2022-11-29T11:21:05.988Z,59.97
2022-11-29T11:23:37.506Z,60.13
2022-11-29T11:26:08.662Z,60.11
2022-11-29T11:28:39.362Z,59.97
2022-11-29T11:31:09.708Z,60.08
2022-11-29T11:33:38.730Z,59.74
2022-11-29T11:36:10.783Z,59.65
2022-11-29T11:38:39.793Z,59.67
2022-11-29T11:41:44.695Z,59.76
2022-11-29T11:44:48.572Z,59.56
2022-11-29T11:47:15.489Z,59.66
2022-11-29T11:49:48.579Z,60.18
2022-11-29T11:52:20.108Z,59.81
2022-11-29T11:54:48.213Z,59.88
2022-11-29T11:57:18.038Z,59.76
2022-11-29T11:59:48.915Z,59.90
2022-11-29T12:02:27.552Z,60.18
2022-11-29T12:04:55.728Z,60.50
2022-11-29T12:07:51.828Z,60.68
2022-11-29T12:10:18.681Z,60.00
2022-11-29T12:12:46.564Z,59.77
2022-11-29T12:15:18.398Z,59.80
2022-11-29T12:17:49.544Z,60.37
2022-11-29T12:20:21.782Z,63.69
2022-11-29T12:22:57.753Z,64.51
2022-11-29T12:25:26.311Z,62.45
2022-11-29T12:27:54.249Z,61.17
2022-11-29T12:30:22.311Z,59.21
2022-11-29T12:33:01.169Z,57.92
2022-11-29T12:35:46.994Z,57.82
2022-11-29T12:38:23.985Z,58.27
2022-11-29T12:40:54.740Z,58.85
2022-11-29T12:43:26.386Z,59.50
2022-11-29T12:45:57.024Z,61.44
2022-11-29T12:48:30.279Z,63.15
2022-11-29T12:51:02.419Z,63.14
2022-11-29T12:53:47.549Z,61.17
2022-11-29T12:56:16.971Z,58.42
2022-11-29T12:58:54.299Z,57.39
2022-11-29T13:01:26.163Z,56.34
2022-11-29T13:03:58.296Z,56.54
2022-11-29T13:06:30.447Z,57.24
2022-11-29T13:09:12.416Z,57.71
2022-11-29T13:11:41.514Z,58.86
2022-11-29T13:14:41.447Z,59.63
2022-11-29T13:17:01.781Z,60.17
2022-11-29T13:19:35.652Z,59.59
2022-11-29T13:22:07.503Z,59.06
2022-11-29T13:24:42.528Z,58.14
2022-11-29T13:27:14.595Z,57.34
2022-11-29T13:29:42.527Z,57.13
2022-11-29T13:32:29.414Z,56.12
2022-11-29T13:34:59.693Z,55.80
2022-11-29T13:37:30.019Z,55.09
2022-11-29T13:40:01.256Z,54.92
2022-11-29T13:42:37.322Z,54.97
2022-11-29T13:45:07.585Z,54.12
2022-11-29T13:47:35.498Z,54.76
2022-11-29T13:50:05.573Z,54.76
2022-11-29T13:52:39.583Z,54.99
2022-11-29T13:55:29.370Z,54.88
2022-11-29T13:58:16.453Z,55.11
2022-11-29T14:00:50.338Z,55.01
2022-11-29T14:03:29.461Z,55.40
2022-11-29T14:06:11.096Z,55.33
2022-11-29T14:09:16.675Z,55.28
2022-11-29T14:11:29.387Z,54.91
2022-11-29T14:14:00.147Z,55.46
2022-11-29T14:16:31.443Z,55.46
2022-11-29T14:19:07.812Z,55.35
2022-11-29T14:22:24.539Z,55.53
2022-11-29T14:25:49.339Z,55.65
2022-11-29T14:28:23.282Z,55.81
2022-11-29T14:30:51.879Z,55.89
2022-11-29T14:33:28.071Z,55.73
2022-11-29T14:36:14.214Z,55.92
2022-11-29T14:38:44.541Z,56.09
2022-11-29T14:41:21.369Z,56.24
2022-11-29T14:43:49.308Z,56.57
2022-11-29T14:46:29.230Z,56.28
2022-11-29T14:49:01.637Z,56.55
2022-11-29T14:51:30.615Z,56.14
2022-11-29T14:54:14.281Z,56.24
2022-11-29T14:56:43.788Z,56.71
2022-11-29T14:59:40.153Z,56.67
2022-11-29T15:02:08.856Z,56.54
2022-11-29T15:04:36.991Z,56.89
2022-11-29T15:07:04.899Z,56.53
2022-11-29T15:09:35.717Z,56.58
2022-11-29T15:12:08.188Z,56.86
2022-11-29T15:14:40.656Z,56.98
2022-11-29T15:17:21.695Z,56.81
2022-11-29T15:19:59.397Z,57.24
2022-11-29T15:22:28.245Z,57.07
2022-11-29T15:24:57.054Z,57.30
2022-11-29T15:27:26.601Z,57.02
2022-11-29T15:29:54.607Z,57.04
2022-11-29T15:32:25.895Z,57.08
2022-11-29T15:34:54.655Z,57.07
2022-11-29T15:37:23.678Z,57.45
2022-11-29T15:40:01.750Z,57.45
2022-11-29T15:42:39.812Z,57.30
2022-11-29T15:45:30.654Z,57.27
2022-11-29T15:48:12.573Z,57.40
2022-11-29T15:50:41.165Z,57.80
2022-11-29T15:53:09.929Z,57.58
2022-11-29T15:55:40.760Z,57.57
2022-11-29T15:58:11.794Z,57.83
2022-11-29T16:00:39.774Z,57.83
2022-11-29T16:03:07.737Z,57.82
2022-11-29T16:05:36.532Z,57.71
2022-11-29T16:08:05.824Z,58.03
2022-11-29T16:10:36.040Z,58.04
2022-11-29T16:13:06.262Z,58.27
2022-11-29T16:15:36.896Z,58.28
2022-11-29T16:18:05.920Z,58.36
2022-11-29T16:20:33.977Z,58.17
2022-11-29T16:23:19.450Z,58.16
2022-11-29T16:25:52.733Z,58.26
2022-11-29T16:28:20.648Z,58.24
2022-11-29T16:30:49.929Z,58.19
2022-11-29T16:33:21.391Z,58.34
2022-11-29T16:35:49.253Z,58.22
2022-11-29T16:38:20.197Z,58.62
2022-11-29T16:41:02.098Z,58.60
2022-11-29T16:43:55.422Z,58.59
2022-11-29T16:46:35.438Z,58.83
2022-11-29T16:49:04.766Z,58.76
2022-11-29T16:51:39.914Z,58.86
2022-11-29T16:54:21.285Z,58.64
2022-11-29T16:56:49.221Z,58.75
2022-11-29T16:59:26.773Z,58.90
2022-11-29T17:01:57.462Z,58.77
2022-11-29T17:04:25.553Z,58.68
2022-11-29T17:06:54.128Z,58.71
2022-11-29T17:09:24.451Z,58.73
2022-11-29T17:11:52.450Z,58.79
2022-11-29T17:14:20.343Z,58.76
2022-11-29T17:16:49.433Z,58.95
2022-11-29T17:19:19.302Z,58.92
2022-11-29T17:21:47.617Z,58.84
2022-11-29T17:24:16.690Z,58.78
2022-11-29T17:26:44.686Z,58.78
2022-11-29T17:29:12.956Z,59.02
2022-11-29T17:31:41.434Z,58.94
2022-11-29T17:34:09.507Z,58.68
2022-11-29T17:36:38.775Z,58.87
2022-11-29T17:39:06.993Z,58.63
2022-11-29T17:41:34.968Z,58.84
2022-11-29T17:44:05.764Z,58.84
2022-11-29T17:46:34.730Z,58.73
2022-11-29T17:49:03.300Z,58.67
2022-11-29T17:54:20.959Z,58.83
2022-11-29T17:56:49.310Z,58.66
2022-11-29T17:59:17.220Z,58.65
2022-11-29T18:01:47.007Z,58.65
2022-11-29T18:04:15.185Z,58.67
2022-11-29T18:06:43.532Z,58.68
2022-11-29T18:09:12.883Z,58.49
2022-11-29T18:11:48.248Z,58.51
2022-11-29T18:14:17.759Z,58.42
2022-11-29T18:16:46.117Z,58.54
2022-11-29T18:19:15.037Z,58.44
2022-11-29T18:21:43.007Z,58.35
2022-11-29T18:24:11.011Z,58.34
2022-11-29T18:26:39.097Z,58.20
2022-11-29T18:29:08.640Z,58.42
2022-11-29T18:31:37.365Z,58.03
2022-11-29T18:34:09.499Z,58.50
2022-11-29T18:36:38.963Z,58.25
2022-11-29T18:39:08.562Z,58.42
2022-11-29T18:41:36.432Z,58.48
2022-11-29T18:44:05.381Z,58.41
2022-11-29T18:46:36.623Z,58.17
2022-11-29T18:49:04.947Z,58.38
2022-11-29T18:51:33.026Z,58.31
2022-11-29T18:54:01.101Z,58.33
2022-11-29T18:56:29.894Z,58.19
2022-11-29T18:58:58.861Z,58.20
2022-11-29T19:01:27.632Z,58.31
2022-11-29T19:03:58.491Z,58.25
2022-11-29T19:06:27.306Z,58.37
2022-11-29T19:08:57.002Z,58.38
2022-11-29T19:11:25.277Z,58.21
2022-11-29T19:13:53.898Z,58.29
2022-11-29T19:16:22.141Z,58.24
2022-11-29T19:18:51.646Z,58.38
2022-11-29T19:21:21.282Z,58.47
2022-11-29T19:23:52.690Z,58.12
2022-11-29T19:26:20.621Z,58.43
2022-11-29T19:28:48.579Z,58.39
2022-11-29T19:31:17.352Z,58.36
2022-11-29T19:33:45.282Z,58.28
2022-11-29T19:36:13.944Z,58.49
2022-11-29T19:38:46.583Z,58.32
2022-11-29T19:41:19.142Z,58.43
2022-11-29T19:43:47.177Z,58.58
2022-11-29T19:46:15.997Z,58.37
2022-11-29T19:48:43.998Z,58.39
2022-11-29T19:51:11.939Z,58.60
2022-11-29T19:53:39.820Z,58.62
2022-11-29T19:56:10.321Z,58.34
2022-11-29T19:58:38.236Z,58.32
2022-11-29T20:01:06.811Z,58.51
2022-11-29T20:03:34.739Z,58.55
2022-11-29T20:06:02.735Z,58.53
2022-11-29T20:08:31.045Z,58.52
2022-11-29T20:11:05.947Z,58.84
2022-11-29T20:13:35.233Z,58.75
2022-11-29T20:16:04.075Z,58.81
2022-11-29T20:18:33.027Z,58.64
2022-11-29T20:21:05.945Z,58.73
2022-11-29T20:23:34.045Z,58.58
2022-11-29T20:26:02.140Z,58.55
2022-11-29T20:28:30.053Z,58.67
2022-11-29T20:31:05.096Z,58.82
2022-11-29T20:33:33.316Z,58.71
2022-11-29T20:36:06.673Z,58.70
2022-11-29T20:38:36.306Z,58.72
2022-11-29T20:41:07.980Z,58.79
2022-11-29T20:43:39.079Z,58.69
2022-11-29T20:46:09.271Z,58.59
2022-11-29T20:48:37.726Z,58.86
2022-11-29T20:51:06.400Z,58.68
2022-11-29T20:53:39.267Z,58.86
2022-11-29T20:56:07.697Z,58.85
2022-11-29T20:58:35.720Z,58.87
2022-11-29T21:01:03.648Z,58.85
2022-11-29T21:03:32.969Z,58.91
2022-11-29T21:06:02.418Z,58.70
2022-11-29T21:08:30.376Z,58.80
2022-11-29T21:11:02.977Z,58.82
2022-11-29T21:13:31.520Z,58.62
2022-11-29T21:16:00.234Z,58.60
2022-11-29T21:18:29.584Z,58.55
2022-11-29T21:21:03.772Z,58.80
2022-11-29T21:23:37.403Z,58.62
2022-11-29T21:26:08.662Z,58.47
2022-11-29T21:28:38.775Z,58.42
2022-11-29T21:31:07.306Z,58.74
2022-11-29T21:33:35.789Z,58.67
2022-11-29T21:36:06.194Z,58.56
2022-11-29T21:38:34.058Z,58.57
2022-11-29T21:41:01.932Z,58.69
2022-11-29T21:44:04.523Z,58.59
2022-11-29T21:46:18.226Z,58.71
2022-11-29T21:48:46.203Z,58.47
2022-11-29T21:51:15.467Z,58.72
2022-11-29T21:53:43.404Z,58.68
2022-11-29T21:56:11.819Z,58.84
2022-11-29T21:58:40.110Z,58.89
2022-11-29T22:01:09.510Z,58.77
2022-11-29T22:03:37.506Z,59.02
2022-11-29T22:06:06.153Z,59.17
2022-11-29T22:08:36.188Z,58.91
2022-11-29T22:11:04.713Z,59.15
2022-11-29T22:13:32.613Z,59.03
2022-11-29T22:16:08.063Z,58.98
2022-11-29T22:18:36.022Z,58.96
2022-11-29T22:21:05.407Z,59.03
2022-11-29T22:23:33.488Z,59.20
2022-11-29T22:26:06.585Z,58.99
2022-11-29T22:28:34.678Z,59.08
2022-11-29T22:31:04.083Z,59.00
2022-11-29T22:33:32.209Z,59.00
2022-11-29T22:36:04.124Z,58.86
2022-11-29T22:38:32.057Z,59.00
2022-11-29T22:41:03.175Z,58.75
2022-11-29T22:43:32.525Z,58.84
2022-11-29T22:46:07.395Z,58.89
2022-11-29T22:48:38.639Z,58.91
2022-11-29T22:51:07.730Z,59.08
2022-11-29T22:53:35.667Z,59.12
2022-11-29T22:56:04.604Z,59.00
2022-11-29T22:58:33.906Z,58.98
2022-11-29T23:01:05.825Z,59.10
2022-11-29T23:03:35.058Z,59.09
2022-11-29T23:06:07.041Z,59.16
2022-11-29T23:08:35.006Z,59.04
2022-11-29T23:11:04.398Z,59.18
2022-11-29T23:13:34.678Z,59.19
2022-11-29T23:16:02.620Z,59.23
2022-11-29T23:18:30.828Z,59.19
2022-11-29T23:21:02.645Z,59.44
2022-11-29T23:23:30.566Z,58.94
2022-11-29T23:25:58.557Z,59.21
2022-11-29T23:28:26.479Z,59.06
2022-11-29T23:30:55.791Z,59.18
2022-11-29T23:33:23.851Z,59.17
2022-11-29T23:35:52.025Z,59.21
2022-11-29T23:38:19.888Z,59.19
2022-11-29T23:40:47.818Z,58.91
2022-11-29T23:43:15.853Z,59.17
2022-11-29T23:45:43.781Z,59.09
2022-11-29T23:48:13.045Z,59.19
2022-11-29T23:50:40.914Z,59.04
2022-11-29T23:53:08.815Z,59.07
2022-11-29T23:55:36.770Z,59.15
2022-11-29T23:58:04.747Z,59.15
